sensor_id;sensor_type;location;lat;lon;timestamp;pressure;altitude;pressure_sealevel;temperature;humidity
62524;BME280;53689;56.878;60.672;2023-05-25T00:01:23;99048.94;;;24.79;27.99
62524;BME280;53689;56.878;60.672;2023-05-25T00:03:50;99053.09;;;24.82;27.94
62524;BME280;53689;56.878;60.672;2023-05-25T00:06:17;99050.41;;;24.82;27.94
62524;BME280;53689;56.878;60.672;2023-05-25T00:08:45;99059.69;;;24.72;28.06
62524;BME280;53689;56.878;60.672;2023-05-25T00:11:12;99049.00;;;24.64;28.73
62524;BME280;53689;56.878;60.672;2023-05-25T00:13:39;99055.72;;;24.68;27.92
62524;BME280;53689;56.878;60.672;2023-05-25T00:16:06;99060.47;;;24.94;28.46
62524;BME280;53689;56.878;60.672;2023-05-25T00:18:35;99061.66;;;24.78;28.40
62524;BME280;53689;56.878;60.672;2023-05-25T00:21:02;99055.50;;;24.98;28.04
62524;BME280;53689;56.878;60.672;2023-05-25T00:23:29;99064.22;;;24.93;27.61
62524;BME280;53689;56.878;60.672;2023-05-25T00:25:56;99062.81;;;24.69;28.13
62524;BME280;53689;56.878;60.672;2023-05-25T00:28:24;99065.75;;;25.10;28.26
62524;BME280;53689;56.878;60.672;2023-05-25T00:30:51;99071.72;;;24.91;27.51
62524;BME280;53689;56.878;60.672;2023-05-25T00:33:19;99070.25;;;24.89;28.27
62524;BME280;53689;56.878;60.672;2023-05-25T00:35:48;99068.91;;;25.20;27.92
62524;BME280;53689;56.878;60.672;2023-05-25T00:38:15;99067.56;;;24.96;28.48
62524;BME280;53689;56.878;60.672;2023-05-25T00:40:44;99075.28;;;24.99;28.38
62524;BME280;53689;56.878;60.672;2023-05-25T00:43:11;99073.81;;;24.96;28.23
62524;BME280;53689;56.878;60.672;2023-05-25T00:45:39;99069.25;;;25.03;27.77
62524;BME280;53689;56.878;60.672;2023-05-25T00:48:07;99066.34;;;25.05;27.92
62524;BME280;53689;56.878;60.672;2023-05-25T00:50:37;99066.31;;;24.98;27.76
62524;BME280;53689;56.878;60.672;2023-05-25T00:53:06;99064.44;;;24.99;28.66
62524;BME280;53689;56.878;60.672;2023-05-25T00:55:35;99067.72;;;24.87;27.88
62524;BME280;53689;56.878;60.672;2023-05-25T00:58:03;99073.44;;;25.06;27.89
62524;BME280;53689;56.878;60.672;2023-05-25T01:00:31;99069.91;;;25.05;28.24
62524;BME280;53689;56.878;60.672;2023-05-25T01:02:59;99073.88;;;25.10;27.44
62524;BME280;53689;56.878;60.672;2023-05-25T01:05:27;99072.84;;;25.17;27.36
62524;BME280;53689;56.878;60.672;2023-05-25T01:07:56;99070.25;;;24.96;28.81
62524;BME280;53689;56.878;60.672;2023-05-25T01:10:26;99073.47;;;25.13;27.78
62524;BME280;53689;56.878;60.672;2023-05-25T01:12:55;99074.34;;;25.20;27.57
62524;BME280;53689;56.878;60.672;2023-05-25T01:15:23;99076.47;;;25.31;27.33
62524;BME280;53689;56.878;60.672;2023-05-25T01:17:52;99075.97;;;25.14;28.14
62524;BME280;53689;56.878;60.672;2023-05-25T01:20:20;99072.91;;;25.24;27.90
62524;BME280;53689;56.878;60.672;2023-05-25T01:22:50;99072.84;;;25.11;28.18
62524;BME280;53689;56.878;60.672;2023-05-25T01:25:19;99080.63;;;25.27;28.12
62524;BME280;53689;56.878;60.672;2023-05-25T01:27:49;99078.72;;;25.21;27.72
62524;BME280;53689;56.878;60.672;2023-05-25T01:30:17;99078.53;;;25.29;28.32
62524;BME280;53689;56.878;60.672;2023-05-25T01:32:45;99078.38;;;25.38;27.41
62524;BME280;53689;56.878;60.672;2023-05-25T01:35:13;99076.28;;;25.40;28.23
62524;BME280;53689;56.878;60.672;2023-05-25T01:37:44;99081.69;;;25.33;27.78
62524;BME280;53689;56.878;60.672;2023-05-25T01:40:13;99080.22;;;25.37;28.35
62524;BME280;53689;56.878;60.672;2023-05-25T01:42:41;99080.44;;;25.35;28.29
62524;BME280;53689;56.878;60.672;2023-05-25T01:45:08;99072.13;;;25.44;28.39
62524;BME280;53689;56.878;60.672;2023-05-25T01:47:39;99081.13;;;25.51;28.02
62524;BME280;53689;56.878;60.672;2023-05-25T01:50:11;99081.44;;;25.28;28.73
62524;BME280;53689;56.878;60.672;2023-05-25T01:52:41;99084.41;;;25.33;27.72
62524;BME280;53689;56.878;60.672;2023-05-25T01:55:14;99083.09;;;25.22;28.51
62524;BME280;53689;56.878;60.672;2023-05-25T01:57:42;99087.25;;;25.18;28.11
62524;BME280;53689;56.878;60.672;2023-05-25T02:00:10;99086.03;;;25.27;28.11
62524;BME280;53689;56.878;60.672;2023-05-25T02:02:40;99086.34;;;25.04;28.41
62524;BME280;53689;56.878;60.672;2023-05-25T02:05:08;99088.28;;;25.10;27.95
62524;BME280;53689;56.878;60.672;2023-05-25T02:07:36;99083.47;;;25.05;27.90
62524;BME280;53689;56.878;60.672;2023-05-25T02:10:03;99091.16;;;25.08;28.00
62524;BME280;53689;56.878;60.672;2023-05-25T02:12:32;99088.06;;;25.12;27.69
62524;BME280;53689;56.878;60.672;2023-05-25T02:14:59;99086.03;;;25.27;27.25
62524;BME280;53689;56.878;60.672;2023-05-25T02:17:26;99080.84;;;25.32;27.05
62524;BME280;53689;56.878;60.672;2023-05-25T02:19:54;99087.13;;;25.40;27.53
62524;BME280;53689;56.878;60.672;2023-05-25T02:22:21;99076.03;;;25.28;26.97
62524;BME280;53689;56.878;60.672;2023-05-25T02:24:49;99084.78;;;25.23;27.77
62524;BME280;53689;56.878;60.672;2023-05-25T02:27:16;99079.59;;;25.28;27.76
62524;BME280;53689;56.878;60.672;2023-05-25T02:29:44;99073.28;;;25.21;27.74
62524;BME280;53689;56.878;60.672;2023-05-25T02:32:12;99082.47;;;25.20;27.63
62524;BME280;53689;56.878;60.672;2023-05-25T02:34:39;99078.69;;;25.14;27.21
62524;BME280;53689;56.878;60.672;2023-05-25T02:37:06;99076.88;;;25.28;27.76
62524;BME280;53689;56.878;60.672;2023-05-25T02:39:34;99075.72;;;25.51;27.31
62524;BME280;53689;56.878;60.672;2023-05-25T02:42:01;99069.28;;;25.52;26.73
62524;BME280;53689;56.878;60.672;2023-05-25T02:44:29;99077.00;;;25.69;26.87
62524;BME280;53689;56.878;60.672;2023-05-25T02:46:58;99074.09;;;25.63;26.42
62524;BME280;53689;56.878;60.672;2023-05-25T02:49:26;99072.81;;;25.53;27.17
62524;BME280;53689;56.878;60.672;2023-05-25T02:51:53;99067.63;;;25.65;26.86
62524;BME280;53689;56.878;60.672;2023-05-25T02:54:20;99066.41;;;25.74;26.82
62524;BME280;53689;56.878;60.672;2023-05-25T02:56:47;99073.47;;;25.68;26.91
62524;BME280;53689;56.878;60.672;2023-05-25T02:59:16;99071.16;;;25.58;26.52
62524;BME280;53689;56.878;60.672;2023-05-25T03:01:44;99078.66;;;25.56;26.59
62524;BME280;53689;56.878;60.672;2023-05-25T03:04:13;99077.66;;;25.71;26.88
62524;BME280;53689;56.878;60.672;2023-05-25T03:06:41;99072.03;;;25.79;26.21
62524;BME280;53689;56.878;60.672;2023-05-25T03:09:12;99078.91;;;25.75;26.90
62524;BME280;53689;56.878;60.672;2023-05-25T03:11:40;99071.22;;;25.85;27.12
62524;BME280;53689;56.878;60.672;2023-05-25T03:14:10;99068.06;;;25.88;25.74
62524;BME280;53689;56.878;60.672;2023-05-25T03:16:39;99073.28;;;25.76;26.61
62524;BME280;53689;56.878;60.672;2023-05-25T03:19:07;99074.56;;;26.01;25.71
62524;BME280;53689;56.878;60.672;2023-05-25T03:21:37;99073.31;;;26.03;26.11
62524;BME280;53689;56.878;60.672;2023-05-25T03:24:05;99067.47;;;26.13;25.53
62524;BME280;53689;56.878;60.672;2023-05-25T03:26:32;99083.13;;;26.11;25.44
62524;BME280;53689;56.878;60.672;2023-05-25T03:29:02;99063.28;;;26.17;25.60
62524;BME280;53689;56.878;60.672;2023-05-25T03:31:30;99070.84;;;26.36;25.13
62524;BME280;53689;56.878;60.672;2023-05-25T03:33:58;99067.69;;;26.45;24.71
62524;BME280;53689;56.878;60.672;2023-05-25T03:36:25;99067.72;;;26.25;24.84
62524;BME280;53689;56.878;60.672;2023-05-25T03:38:53;99069.19;;;26.28;24.94
62524;BME280;53689;56.878;60.672;2023-05-25T03:41:21;99065.81;;;26.06;25.62
62524;BME280;53689;56.878;60.672;2023-05-25T03:43:48;99067.50;;;26.27;24.75
62524;BME280;53689;56.878;60.672;2023-05-25T03:46:15;99066.66;;;26.26;25.50
62524;BME280;53689;56.878;60.672;2023-05-25T03:48:42;99068.53;;;26.39;25.13
62524;BME280;53689;56.878;60.672;2023-05-25T03:51:10;99067.28;;;26.49;24.41
62524;BME280;53689;56.878;60.672;2023-05-25T03:53:37;99071.88;;;26.35;25.32
62524;BME280;53689;56.878;60.672;2023-05-25T03:56:08;99064.56;;;26.49;25.10
62524;BME280;53689;56.878;60.672;2023-05-25T03:58:36;99072.25;;;26.65;24.31
62524;BME280;53689;56.878;60.672;2023-05-25T04:01:03;99072.50;;;26.57;24.80
62524;BME280;53689;56.878;60.672;2023-05-25T04:03:31;99067.00;;;26.77;24.93
62524;BME280;53689;56.878;60.672;2023-05-25T04:05:59;99059.72;;;26.71;24.91
62524;BME280;53689;56.878;60.672;2023-05-25T04:08:27;99055.09;;;26.92;24.40
62524;BME280;53689;56.878;60.672;2023-05-25T04:10:54;99052.78;;;26.95;24.74
62524;BME280;53689;56.878;60.672;2023-05-25T04:13:23;99052.13;;;27.07;23.58
62524;BME280;53689;56.878;60.672;2023-05-25T04:15:53;99062.09;;;27.20;23.60
62524;BME280;53689;56.878;60.672;2023-05-25T04:18:24;99063.44;;;27.04;23.84
62524;BME280;53689;56.878;60.672;2023-05-25T04:20:51;99062.09;;;27.20;23.64
62524;BME280;53689;56.878;60.672;2023-05-25T04:23:20;99059.25;;;26.87;24.03
62524;BME280;53689;56.878;60.672;2023-05-25T04:25:49;99054.47;;;26.90;23.88
62524;BME280;53689;56.878;60.672;2023-05-25T04:28:17;99058.13;;;27.15;23.87
62524;BME280;53689;56.878;60.672;2023-05-25T04:30:55;99058.00;;;26.97;24.41
62524;BME280;53689;56.878;60.672;2023-05-25T04:33:45;99047.34;;;26.82;24.16
62524;BME280;53689;56.878;60.672;2023-05-25T04:36:28;99046.53;;;26.88;24.17
62524;BME280;53689;56.878;60.672;2023-05-25T04:38:56;99055.69;;;27.00;24.32
62524;BME280;53689;56.878;60.672;2023-05-25T04:41:23;99038.56;;;26.93;24.62
62524;BME280;53689;56.878;60.672;2023-05-25T04:43:52;99041.47;;;26.98;24.70
62524;BME280;53689;56.878;60.672;2023-05-25T04:46:40;99044.44;;;26.83;24.66
62524;BME280;53689;56.878;60.672;2023-05-25T04:49:13;99044.41;;;26.97;24.25
62524;BME280;53689;56.878;60.672;2023-05-25T04:51:40;99044.63;;;26.95;24.05
62524;BME280;53689;56.878;60.672;2023-05-25T04:54:08;99036.88;;;27.06;24.50
62524;BME280;53689;56.878;60.672;2023-05-25T04:56:35;99038.75;;;26.98;23.83
62524;BME280;53689;56.878;60.672;2023-05-25T04:59:02;99041.91;;;26.95;23.56
62524;BME280;53689;56.878;60.672;2023-05-25T05:01:30;99042.06;;;27.14;23.42
62524;BME280;53689;56.878;60.672;2023-05-25T05:04:02;99044.69;;;27.27;23.49
62524;BME280;53689;56.878;60.672;2023-05-25T05:06:30;99039.47;;;27.33;23.33
62524;BME280;53689;56.878;60.672;2023-05-25T05:08:58;99046.59;;;27.66;23.53
62524;BME280;53689;56.878;60.672;2023-05-25T05:11:25;99041.72;;;27.36;23.55
62524;BME280;53689;56.878;60.672;2023-05-25T05:13:52;99032.97;;;27.34;23.82
62524;BME280;53689;56.878;60.672;2023-05-25T05:16:20;99031.66;;;27.43;23.63
62524;BME280;53689;56.878;60.672;2023-05-25T05:18:47;99031.59;;;27.89;22.76
62524;BME280;53689;56.878;60.672;2023-05-25T05:21:15;99022.50;;;27.69;23.09
62524;BME280;53689;56.878;60.672;2023-05-25T05:23:45;99029.41;;;27.72;22.87
62524;BME280;53689;56.878;60.672;2023-05-25T05:26:12;99027.81;;;28.15;21.89
62524;BME280;53689;56.878;60.672;2023-05-25T05:28:41;99021.72;;;27.62;22.68
62524;BME280;53689;56.878;60.672;2023-05-25T05:31:08;99024.88;;;27.59;22.98
62524;BME280;53689;56.878;60.672;2023-05-25T05:33:35;99013.69;;;27.42;23.11
62524;BME280;53689;56.878;60.672;2023-05-25T05:36:03;99029.19;;;27.35;22.89
62524;BME280;53689;56.878;60.672;2023-05-25T05:38:32;99021.38;;;27.84;22.51
62524;BME280;53689;56.878;60.672;2023-05-25T05:40:59;99020.72;;;27.50;22.34
62524;BME280;53689;56.878;60.672;2023-05-25T05:43:26;99019.31;;;27.40;22.47
62524;BME280;53689;56.878;60.672;2023-05-25T05:45:54;99026.06;;;27.31;21.88
62524;BME280;53689;56.878;60.672;2023-05-25T05:48:21;99024.56;;;27.35;21.60
62524;BME280;53689;56.878;60.672;2023-05-25T05:50:48;99010.56;;;27.32;21.15
62524;BME280;53689;56.878;60.672;2023-05-25T05:53:16;99008.78;;;27.19;21.52
62524;BME280;53689;56.878;60.672;2023-05-25T05:55:46;99007.44;;;27.35;21.62
62524;BME280;53689;56.878;60.672;2023-05-25T05:58:17;99017.34;;;27.22;20.21
62524;BME280;53689;56.878;60.672;2023-05-25T06:00:44;99012.56;;;27.18;20.27
62524;BME280;53689;56.878;60.672;2023-05-25T06:03:11;99011.72;;;27.17;19.47
62524;BME280;53689;56.878;60.672;2023-05-25T06:05:39;99019.25;;;27.15;19.63
62524;BME280;53689;56.878;60.672;2023-05-25T06:08:06;99006.34;;;27.04;19.97
62524;BME280;53689;56.878;60.672;2023-05-25T06:10:35;99002.16;;;27.08;19.74
62524;BME280;53689;56.878;60.672;2023-05-25T06:13:03;99001.13;;;27.02;20.24
62524;BME280;53689;56.878;60.672;2023-05-25T06:15:30;98999.97;;;27.23;20.24
62524;BME280;53689;56.878;60.672;2023-05-25T06:17:59;98988.22;;;27.29;19.63
62524;BME280;53689;56.878;60.672;2023-05-25T06:20:26;98986.97;;;27.64;19.42
62524;BME280;53689;56.878;60.672;2023-05-25T06:22:54;98974.81;;;27.35;19.36
62524;BME280;53689;56.878;60.672;2023-05-25T06:25:21;98971.03;;;27.36;20.02
62524;BME280;53689;56.878;60.672;2023-05-25T06:27:49;98970.78;;;27.44;20.07
62524;BME280;53689;56.878;60.672;2023-05-25T06:30:18;98974.03;;;27.60;19.82
62524;BME280;53689;56.878;60.672;2023-05-25T06:32:45;98978.44;;;27.61;20.15
62524;BME280;53689;56.878;60.672;2023-05-25T06:35:12;98969.66;;;27.59;19.14
62524;BME280;53689;56.878;60.672;2023-05-25T06:37:40;98968.47;;;27.41;19.17
62524;BME280;53689;56.878;60.672;2023-05-25T06:40:09;98968.97;;;27.31;19.66
62524;BME280;53689;56.878;60.672;2023-05-25T06:42:38;98973.75;;;27.36;20.14
62524;BME280;53689;56.878;60.672;2023-05-25T06:45:26;98971.69;;;27.70;19.00
62524;BME280;53689;56.878;60.672;2023-05-25T06:47:53;98961.41;;;27.72;19.03
62524;BME280;53689;56.878;60.672;2023-05-25T06:50:20;98973.16;;;27.34;20.29
62524;BME280;53689;56.878;60.672;2023-05-25T06:52:48;98966.91;;;27.26;19.79
62524;BME280;53689;56.878;60.672;2023-05-25T06:55:15;98967.38;;;27.23;19.46
62524;BME280;53689;56.878;60.672;2023-05-25T06:57:43;98961.31;;;27.53;19.73
62524;BME280;53689;56.878;60.672;2023-05-25T07:00:11;98959.63;;;27.59;19.57
62524;BME280;53689;56.878;60.672;2023-05-25T07:02:40;98966.78;;;27.47;20.25
62524;BME280;53689;56.878;60.672;2023-05-25T07:05:07;98971.75;;;27.56;19.16
62524;BME280;53689;56.878;60.672;2023-05-25T07:07:34;98954.38;;;27.58;19.14
62524;BME280;53689;56.878;60.672;2023-05-25T07:10:02;98959.75;;;27.71;19.33
62524;BME280;53689;56.878;60.672;2023-05-25T07:12:29;98955.06;;;28.04;18.48
62524;BME280;53689;56.878;60.672;2023-05-25T07:14:56;98959.47;;;27.79;18.47
62524;BME280;53689;56.878;60.672;2023-05-25T07:17:23;98957.97;;;27.51;19.67
62524;BME280;53689;56.878;60.672;2023-05-25T07:19:52;98964.41;;;27.64;19.67
62524;BME280;53689;56.878;60.672;2023-05-25T07:22:19;98958.34;;;27.62;18.63
62524;BME280;53689;56.878;60.672;2023-05-25T07:24:47;98955.00;;;27.60;19.02
62524;BME280;53689;56.878;60.672;2023-05-25T07:27:14;98954.34;;;27.90;19.01
62524;BME280;53689;56.878;60.672;2023-05-25T07:29:41;98947.81;;;27.72;18.64
62524;BME280;53689;56.878;60.672;2023-05-25T07:32:08;98954.56;;;27.63;19.41
62524;BME280;53689;56.878;60.672;2023-05-25T07:34:35;98951.47;;;27.59;18.01
62524;BME280;53689;56.878;60.672;2023-05-25T07:37:04;98949.00;;;27.76;18.72
62524;BME280;53689;56.878;60.672;2023-05-25T07:39:31;98952.06;;;27.87;18.67
62524;BME280;53689;56.878;60.672;2023-05-25T07:41:58;98952.38;;;27.97;18.25
62524;BME280;53689;56.878;60.672;2023-05-25T07:44:26;98950.78;;;27.89;20.99
62524;BME280;53689;56.878;60.672;2023-05-25T07:46:53;98947.50;;;28.06;18.39
62524;BME280;53689;56.878;60.672;2023-05-25T07:49:20;98940.81;;;28.02;18.27
62524;BME280;53689;56.878;60.672;2023-05-25T07:51:47;98947.22;;;28.14;18.01
62524;BME280;53689;56.878;60.672;2023-05-25T07:54:16;98948.69;;;28.10;18.25
62524;BME280;53689;56.878;60.672;2023-05-25T07:56:43;98943.16;;;27.79;18.65
62524;BME280;53689;56.878;60.672;2023-05-25T07:59:11;98943.56;;;27.76;18.10
62524;BME280;53689;56.878;60.672;2023-05-25T08:01:38;98944.34;;;27.58;18.59
62524;BME280;53689;56.878;60.672;2023-05-25T08:04:05;98946.84;;;27.85;18.36
62524;BME280;53689;56.878;60.672;2023-05-25T08:06:32;98949.28;;;28.19;17.88
62524;BME280;53689;56.878;60.672;2023-05-25T08:09:00;98940.00;;;28.01;18.05
62524;BME280;53689;56.878;60.672;2023-05-25T08:11:30;98948.59;;;27.79;18.68
62524;BME280;53689;56.878;60.672;2023-05-25T08:13:58;98954.44;;;27.76;18.43
62524;BME280;53689;56.878;60.672;2023-05-25T08:16:25;98943.44;;;27.64;18.79
62524;BME280;53689;56.878;60.672;2023-05-25T08:18:53;98955.22;;;27.83;17.96
62524;BME280;53689;56.878;60.672;2023-05-25T08:21:20;98950.13;;;27.94;18.52
62524;BME280;53689;56.878;60.672;2023-05-25T08:23:48;98929.78;;;27.96;17.79
62524;BME280;53689;56.878;60.672;2023-05-25T08:26:16;98930.03;;;28.14;17.72
62524;BME280;53689;56.878;60.672;2023-05-25T08:29:05;98934.88;;;28.11;17.96
62524;BME280;53689;56.878;60.672;2023-05-25T08:31:32;98928.66;;;28.04;17.94
62524;BME280;53689;56.878;60.672;2023-05-25T08:33:59;98927.44;;;28.44;17.63
62524;BME280;53689;56.878;60.672;2023-05-25T08:36:26;98918.16;;;29.01;17.29
62524;BME280;53689;56.878;60.672;2023-05-25T08:38:53;98921.38;;;28.61;17.45
62524;BME280;53689;56.878;60.672;2023-05-25T08:41:21;98923.31;;;28.72;17.47
62524;BME280;53689;56.878;60.672;2023-05-25T08:43:48;98922.13;;;28.49;17.56
62524;BME280;53689;56.878;60.672;2023-05-25T08:46:19;98919.75;;;28.16;18.01
62524;BME280;53689;56.878;60.672;2023-05-25T08:48:49;98917.78;;;28.04;17.95
62524;BME280;53689;56.878;60.672;2023-05-25T08:51:18;98919.56;;;28.36;17.50
62524;BME280;53689;56.878;60.672;2023-05-25T08:53:46;98919.34;;;28.19;17.85
62524;BME280;53689;56.878;60.672;2023-05-25T08:56:15;98920.75;;;28.59;21.49
62524;BME280;53689;56.878;60.672;2023-05-25T08:58:45;98917.00;;;28.22;21.17
62524;BME280;53689;56.878;60.672;2023-05-25T09:01:19;98916.06;;;28.47;18.10
62524;BME280;53689;56.878;60.672;2023-05-25T09:03:47;98914.19;;;28.48;17.44
62524;BME280;53689;56.878;60.672;2023-05-25T09:06:14;98911.81;;;28.89;16.95
62524;BME280;53689;56.878;60.672;2023-05-25T09:08:42;98912.06;;;28.50;17.41
62524;BME280;53689;56.878;60.672;2023-05-25T09:11:10;98918.88;;;28.22;17.32
62524;BME280;53689;56.878;60.672;2023-05-25T09:13:42;98919.06;;;28.27;17.03
62524;BME280;53689;56.878;60.672;2023-05-25T09:16:09;98913.59;;;28.27;17.46
62524;BME280;53689;56.878;60.672;2023-05-25T09:18:38;98915.31;;;28.40;17.42
62524;BME280;53689;56.878;60.672;2023-05-25T09:21:05;98901.75;;;28.89;17.14
62524;BME280;53689;56.878;60.672;2023-05-25T09:23:32;98905.00;;;28.98;17.50
62524;BME280;53689;56.878;60.672;2023-05-25T09:26:00;98907.06;;;28.65;17.62
62524;BME280;53689;56.878;60.672;2023-05-25T09:28:28;98899.13;;;28.45;17.43
62524;BME280;53689;56.878;60.672;2023-05-25T09:30:56;98899.66;;;28.54;17.31
62524;BME280;53689;56.878;60.672;2023-05-25T09:33:23;98903.06;;;28.49;17.53
62524;BME280;53689;56.878;60.672;2023-05-25T09:35:51;98893.84;;;28.13;17.33
62524;BME280;53689;56.878;60.672;2023-05-25T09:38:19;98902.34;;;28.17;17.30
62524;BME280;53689;56.878;60.672;2023-05-25T09:40:46;98891.66;;;28.41;17.37
62524;BME280;53689;56.878;60.672;2023-05-25T09:43:14;98898.84;;;28.53;17.28
62524;BME280;53689;56.878;60.672;2023-05-25T09:46:02;98897.69;;;28.43;17.71
62524;BME280;53689;56.878;60.672;2023-05-25T09:48:30;98889.81;;;28.34;17.39
62524;BME280;53689;56.878;60.672;2023-05-25T09:50:59;98891.19;;;28.44;17.61
62524;BME280;53689;56.878;60.672;2023-05-25T09:53:26;98887.94;;;29.03;17.11
62524;BME280;53689;56.878;60.672;2023-05-25T09:55:55;98884.97;;;29.04;17.13
62524;BME280;53689;56.878;60.672;2023-05-25T09:58:22;98877.28;;;29.13;17.42
62524;BME280;53689;56.878;60.672;2023-05-25T10:00:51;98878.47;;;29.60;16.86
62524;BME280;53689;56.878;60.672;2023-05-25T10:03:19;98881.88;;;29.01;17.40
62524;BME280;53689;56.878;60.672;2023-05-25T10:05:47;98882.22;;;29.04;17.07
62524;BME280;53689;56.878;60.672;2023-05-25T10:08:17;98892.69;;;28.58;17.44
62524;BME280;53689;56.878;60.672;2023-05-25T10:10:46;98878.94;;;28.34;17.29
62524;BME280;53689;56.878;60.672;2023-05-25T10:13:14;98868.78;;;28.60;17.31
62524;BME280;53689;56.878;60.672;2023-05-25T10:15:44;98878.69;;;29.16;16.96
62524;BME280;53689;56.878;60.672;2023-05-25T10:18:14;98873.94;;;28.99;17.25
62524;BME280;53689;56.878;60.672;2023-05-25T10:20:43;98872.22;;;28.86;17.41
62524;BME280;53689;56.878;60.672;2023-05-25T10:23:13;98873.00;;;28.75;17.41
62524;BME280;53689;56.878;60.672;2023-05-25T10:25:45;98871.56;;;29.45;16.51
62524;BME280;53689;56.878;60.672;2023-05-25T10:28:16;98876.84;;;28.67;17.32
62524;BME280;53689;56.878;60.672;2023-05-25T10:30:46;98875.47;;;28.46;17.18
62524;BME280;53689;56.878;60.672;2023-05-25T10:33:15;98877.28;;;28.33;17.33
62524;BME280;53689;56.878;60.672;2023-05-25T10:35:44;98885.06;;;28.48;17.46
62524;BME280;53689;56.878;60.672;2023-05-25T10:38:32;98877.09;;;28.84;17.15
62524;BME280;53689;56.878;60.672;2023-05-25T10:41:02;98875.09;;;28.73;17.41
62524;BME280;53689;56.878;60.672;2023-05-25T10:43:31;98868.16;;;28.77;17.42
62524;BME280;53689;56.878;60.672;2023-05-25T10:45:58;98866.81;;;28.98;17.31
62524;BME280;53689;56.878;60.672;2023-05-25T10:48:34;98865.75;;;29.54;16.72
62524;BME280;53689;56.878;60.672;2023-05-25T10:51:01;98867.78;;;29.16;17.06
62524;BME280;53689;56.878;60.672;2023-05-25T10:53:28;98874.97;;;28.86;17.22
62524;BME280;53689;56.878;60.672;2023-05-25T10:56:03;98867.66;;;28.99;17.23
62524;BME280;53689;56.878;60.672;2023-05-25T10:58:31;98866.19;;;28.84;17.47
62524;BME280;53689;56.878;60.672;2023-05-25T11:00:59;98868.78;;;28.60;17.48
62524;BME280;53689;56.878;60.672;2023-05-25T11:06:13;98855.81;;;28.74;17.28
62524;BME280;53689;56.878;60.672;2023-05-25T11:08:47;98858.66;;;29.53;16.66
62524;BME280;53689;56.878;60.672;2023-05-25T11:11:17;98854.34;;;29.45;16.88
62524;BME280;53689;56.878;60.672;2023-05-25T11:13:45;98855.13;;;29.10;17.16
62524;BME280;53689;56.878;60.672;2023-05-25T11:16:16;98852.22;;;28.92;17.57
62524;BME280;53689;56.878;60.672;2023-05-25T11:18:48;98851.41;;;28.92;17.37
62524;BME280;53689;56.878;60.672;2023-05-25T11:21:21;98850.72;;;29.20;16.98
62524;BME280;53689;56.878;60.672;2023-05-25T11:23:53;98848.44;;;28.63;18.07
62524;BME280;53689;56.878;60.672;2023-05-25T11:26:24;98846.28;;;28.65;17.63
62524;BME280;53689;56.878;60.672;2023-05-25T11:28:52;98842.50;;;28.66;17.71
62524;BME280;53689;56.878;60.672;2023-05-25T11:31:21;98846.31;;;28.96;17.26
62524;BME280;53689;56.878;60.672;2023-05-25T11:36:21;98835.25;;;28.90;17.42
62524;BME280;53689;56.878;60.672;2023-05-25T11:38:50;98838.00;;;28.90;17.56
62524;BME280;53689;56.878;60.672;2023-05-25T11:41:32;98836.00;;;28.98;17.25
62524;BME280;53689;56.878;60.672;2023-05-25T11:44:02;98829.44;;;29.53;16.74
62524;BME280;53689;56.878;60.672;2023-05-25T11:46:29;98828.00;;;29.27;17.12
62524;BME280;53689;56.878;60.672;2023-05-25T11:48:57;98820.50;;;29.10;17.09
62524;BME280;53689;56.878;60.672;2023-05-25T11:51:25;98817.22;;;29.32;16.91
62524;BME280;53689;56.878;60.672;2023-05-25T11:53:53;98812.81;;;29.43;16.75
62524;BME280;53689;56.878;60.672;2023-05-25T11:56:21;98816.06;;;29.52;16.86
62524;BME280;53689;56.878;60.672;2023-05-25T11:59:05;98815.38;;;29.02;16.82
62524;BME280;53689;56.878;60.672;2023-05-25T12:01:33;98811.38;;;28.74;17.12
62524;BME280;53689;56.878;60.672;2023-05-25T12:04:05;98806.06;;;29.10;17.16
62524;BME280;53689;56.878;60.672;2023-05-25T12:06:34;98812.91;;;29.00;17.08
62524;BME280;53689;56.878;60.672;2023-05-25T12:09:01;98804.00;;;28.93;17.03
62524;BME280;53689;56.878;60.672;2023-05-25T12:11:30;98805.28;;;28.60;17.00
62524;BME280;53689;56.878;60.672;2023-05-25T12:13:58;98808.44;;;28.75;17.34
62524;BME280;53689;56.878;60.672;2023-05-25T12:16:27;98805.94;;;29.16;17.14
62524;BME280;53689;56.878;60.672;2023-05-25T12:18:54;98793.81;;;28.88;17.07
62524;BME280;53689;56.878;60.672;2023-05-25T12:21:22;98806.91;;;28.79;17.33
62524;BME280;53689;56.878;60.672;2023-05-25T12:23:49;98799.66;;;29.28;16.83
62524;BME280;53689;56.878;60.672;2023-05-25T12:26:17;98792.81;;;29.61;16.55
62524;BME280;53689;56.878;60.672;2023-05-25T12:28:57;98797.19;;;29.62;16.61
62524;BME280;53689;56.878;60.672;2023-05-25T12:31:25;98790.22;;;28.88;17.28
62524;BME280;53689;56.878;60.672;2023-05-25T12:34:07;98790.41;;;29.05;16.98
62524;BME280;53689;56.878;60.672;2023-05-25T12:36:38;98792.16;;;29.11;17.00
62524;BME280;53689;56.878;60.672;2023-05-25T12:39:05;98796.22;;;29.32;16.96
62524;BME280;53689;56.878;60.672;2023-05-25T12:41:40;98794.06;;;28.99;16.79
62524;BME280;53689;56.878;60.672;2023-05-25T12:44:14;98784.78;;;28.88;17.05
62524;BME280;53689;56.878;60.672;2023-05-25T12:46:41;98791.22;;;28.93;17.07
62524;BME280;53689;56.878;60.672;2023-05-25T12:49:22;98792.78;;;29.73;16.53
62524;BME280;53689;56.878;60.672;2023-05-25T12:51:49;98786.38;;;29.43;16.85
62524;BME280;53689;56.878;60.672;2023-05-25T12:54:16;98781.25;;;29.11;17.26
62524;BME280;53689;56.878;60.672;2023-05-25T12:56:58;98777.50;;;29.12;17.03
62524;BME280;53689;56.878;60.672;2023-05-25T12:59:25;98779.19;;;29.61;16.70
62524;BME280;53689;56.878;60.672;2023-05-25T13:01:52;98779.41;;;29.47;16.62
62524;BME280;53689;56.878;60.672;2023-05-25T13:04:20;98783.06;;;29.17;16.81